sensor_id;sensor_type;location;lat;lon;timestamp;temperature;humidity
28524;DHT22;15734;50.904;6.922;2022-07-06T00:01:46;15.80;99.90
28524;DHT22;15734;50.904;6.922;2022-07-06T00:04:12;15.80;99.90
28524;DHT22;15734;50.904;6.922;2022-07-06T00:06:38;15.80;99.90
28524;DHT22;15734;50.904;6.922;2022-07-06T00:09:05;15.70;99.90
28524;DHT22;15734;50.904;6.922;2022-07-06T00:11:31;15.70;99.90
28524;DHT22;15734;50.904;6.922;2022-07-06T00:13:56;15.60;99.90
28524;DHT22;15734;50.904;6.922;2022-07-06T00:16:23;15.60;99.90
28524;DHT22;15734;50.904;6.922;2022-07-06T00:18:49;15.60;99.90
28524;DHT22;15734;50.904;6.922;2022-07-06T00:21:14;15.60;99.90
28524;DHT22;15734;50.904;6.922;2022-07-06T00:23:40;15.50;99.90
28524;DHT22;15734;50.904;6.922;2022-07-06T00:26:05;15.40;99.90
28524;DHT22;15734;50.904;6.922;2022-07-06T00:28:31;15.40;99.90
28524;DHT22;15734;50.904;6.922;2022-07-06T00:30:57;15.30;99.90
28524;DHT22;15734;50.904;6.922;2022-07-06T00:33:22;15.30;99.90
28524;DHT22;15734;50.904;6.922;2022-07-06T00:35:48;15.30;99.90
28524;DHT22;15734;50.904;6.922;2022-07-06T00:38:14;15.20;99.90
28524;DHT22;15734;50.904;6.922;2022-07-06T00:40:39;15.20;99.90
28524;DHT22;15734;50.904;6.922;2022-07-06T00:43:05;15.20;99.90
28524;DHT22;15734;50.904;6.922;2022-07-06T00:45:31;15.20;99.90
28524;DHT22;15734;50.904;6.922;2022-07-06T00:47:56;15.10;99.90
28524;DHT22;15734;50.904;6.922;2022-07-06T00:50:23;15.10;99.90
28524;DHT22;15734;50.904;6.922;2022-07-06T00:52:51;15.00;99.90
28524;DHT22;15734;50.904;6.922;2022-07-06T00:55:22;15.00;99.90
28524;DHT22;15734;50.904;6.922;2022-07-06T00:57:48;15.00;99.90
28524;DHT22;15734;50.904;6.922;2022-07-06T01:00:16;14.90;99.90
28524;DHT22;15734;50.904;6.922;2022-07-06T01:02:42;14.90;99.90
28524;DHT22;15734;50.904;6.922;2022-07-06T01:05:10;14.90;99.90
28524;DHT22;15734;50.904;6.922;2022-07-06T01:07:37;14.80;99.90
28524;DHT22;15734;50.904;6.922;2022-07-06T01:10:06;14.80;99.90
28524;DHT22;15734;50.904;6.922;2022-07-06T01:12:35;14.70;99.90
28524;DHT22;15734;50.904;6.922;2022-07-06T01:15:04;14.70;99.90
28524;DHT22;15734;50.904;6.922;2022-07-06T01:17:30;14.70;99.90
28524;DHT22;15734;50.904;6.922;2022-07-06T01:19:57;14.70;99.90
28524;DHT22;15734;50.904;6.922;2022-07-06T01:22:22;14.60;99.90
28524;DHT22;15734;50.904;6.922;2022-07-06T01:24:48;14.50;99.90
28524;DHT22;15734;50.904;6.922;2022-07-06T01:27:13;14.50;99.90
28524;DHT22;15734;50.904;6.922;2022-07-06T01:29:39;14.40;99.90
28524;DHT22;15734;50.904;6.922;2022-07-06T01:32:05;14.40;99.90
28524;DHT22;15734;50.904;6.922;2022-07-06T01:34:30;14.40;99.90
28524;DHT22;15734;50.904;6.922;2022-07-06T01:36:56;14.30;99.90
28524;DHT22;15734;50.904;6.922;2022-07-06T01:39:21;14.20;99.90
28524;DHT22;15734;50.904;6.922;2022-07-06T01:41:47;14.30;99.90
28524;DHT22;15734;50.904;6.922;2022-07-06T01:44:12;14.20;99.90
28524;DHT22;15734;50.904;6.922;2022-07-06T01:46:38;14.10;99.90
28524;DHT22;15734;50.904;6.922;2022-07-06T01:49:04;14.00;99.90
28524;DHT22;15734;50.904;6.922;2022-07-06T01:51:30;14.00;99.90
28524;DHT22;15734;50.904;6.922;2022-07-06T01:53:57;13.90;99.90
28524;DHT22;15734;50.904;6.922;2022-07-06T01:56:23;13.90;99.90
28524;DHT22;15734;50.904;6.922;2022-07-06T01:58:49;13.90;99.90
28524;DHT22;15734;50.904;6.922;2022-07-06T02:01:16;13.90;99.90
28524;DHT22;15734;50.904;6.922;2022-07-06T02:03:43;13.80;99.90
28524;DHT22;15734;50.904;6.922;2022-07-06T02:06:08;13.80;99.90
28524;DHT22;15734;50.904;6.922;2022-07-06T02:08:35;13.80;99.90
28524;DHT22;15734;50.904;6.922;2022-07-06T02:11:05;13.80;99.90
28524;DHT22;15734;50.904;6.922;2022-07-06T02:13:31;13.80;99.90
28524;DHT22;15734;50.904;6.922;2022-07-06T02:15:56;13.80;99.90
28524;DHT22;15734;50.904;6.922;2022-07-06T02:18:22;13.80;99.90
28524;DHT22;15734;50.904;6.922;2022-07-06T02:20:47;13.80;99.90
28524;DHT22;15734;50.904;6.922;2022-07-06T02:23:13;13.70;99.90
28524;DHT22;15734;50.904;6.922;2022-07-06T02:25:38;13.70;99.90
28524;DHT22;15734;50.904;6.922;2022-07-06T02:28:04;13.70;99.90
28524;DHT22;15734;50.904;6.922;2022-07-06T02:30:30;13.70;99.90
28524;DHT22;15734;50.904;6.922;2022-07-06T02:32:55;13.60;99.90
28524;DHT22;15734;50.904;6.922;2022-07-06T02:35:21;13.60;99.90
28524;DHT22;15734;50.904;6.922;2022-07-06T02:37:47;13.60;99.90
28524;DHT22;15734;50.904;6.922;2022-07-06T02:40:12;13.50;99.90
28524;DHT22;15734;50.904;6.922;2022-07-06T02:42:38;13.50;99.90
28524;DHT22;15734;50.904;6.922;2022-07-06T02:45:04;13.40;99.90
28524;DHT22;15734;50.904;6.922;2022-07-06T02:47:29;13.30;99.90
28524;DHT22;15734;50.904;6.922;2022-07-06T02:49:55;13.40;99.90
28524;DHT22;15734;50.904;6.922;2022-07-06T02:52:21;13.30;99.90
28524;DHT22;15734;50.904;6.922;2022-07-06T02:54:46;13.10;99.90
28524;DHT22;15734;50.904;6.922;2022-07-06T02:57:12;13.00;99.90
28524;DHT22;15734;50.904;6.922;2022-07-06T02:59:37;12.90;99.90
28524;DHT22;15734;50.904;6.922;2022-07-06T03:02:04;12.90;99.90
28524;DHT22;15734;50.904;6.922;2022-07-06T03:04:30;12.80;99.90
28524;DHT22;15734;50.904;6.922;2022-07-06T03:06:55;12.80;99.90
28524;DHT22;15734;50.904;6.922;2022-07-06T03:09:21;12.70;99.90
28524;DHT22;15734;50.904;6.922;2022-07-06T03:11:46;12.70;99.90
28524;DHT22;15734;50.904;6.922;2022-07-06T03:14:12;12.70;99.90
28524;DHT22;15734;50.904;6.922;2022-07-06T03:16:37;12.50;99.90
28524;DHT22;15734;50.904;6.922;2022-07-06T03:19:03;12.30;99.90
28524;DHT22;15734;50.904;6.922;2022-07-06T03:21:29;12.10;99.90
28524;DHT22;15734;50.904;6.922;2022-07-06T03:23:54;12.20;99.90
28524;DHT22;15734;50.904;6.922;2022-07-06T03:26:20;11.90;99.90
28524;DHT22;15734;50.904;6.922;2022-07-06T03:28:45;11.90;99.90
28524;DHT22;15734;50.904;6.922;2022-07-06T03:31:11;11.80;99.90
28524;DHT22;15734;50.904;6.922;2022-07-06T03:33:36;11.70;99.90
28524;DHT22;15734;50.904;6.922;2022-07-06T03:36:02;11.70;99.90
28524;DHT22;15734;50.904;6.922;2022-07-06T03:38:28;11.60;99.90
28524;DHT22;15734;50.904;6.922;2022-07-06T03:40:53;11.60;99.90
28524;DHT22;15734;50.904;6.922;2022-07-06T03:43:19;11.70;99.90
28524;DHT22;15734;50.904;6.922;2022-07-06T03:45:44;11.70;99.90
28524;DHT22;15734;50.904;6.922;2022-07-06T03:48:10;11.70;99.90
28524;DHT22;15734;50.904;6.922;2022-07-06T03:50:35;11.60;99.90
28524;DHT22;15734;50.904;6.922;2022-07-06T03:53:01;11.40;99.90
28524;DHT22;15734;50.904;6.922;2022-07-06T03:55:27;11.50;99.90
28524;DHT22;15734;50.904;6.922;2022-07-06T03:57:52;11.70;99.90
28524;DHT22;15734;50.904;6.922;2022-07-06T04:00:18;11.70;99.90
28524;DHT22;15734;50.904;6.922;2022-07-06T04:02:43;11.60;99.90
28524;DHT22;15734;50.904;6.922;2022-07-06T04:05:09;11.60;99.90
28524;DHT22;15734;50.904;6.922;2022-07-06T04:07:35;11.70;99.90
28524;DHT22;15734;50.904;6.922;2022-07-06T04:10:00;11.70;99.90
28524;DHT22;15734;50.904;6.922;2022-07-06T04:12:26;11.80;99.90
28524;DHT22;15734;50.904;6.922;2022-07-06T04:14:51;11.70;99.90
28524;DHT22;15734;50.904;6.922;2022-07-06T04:17:17;11.80;99.90
28524;DHT22;15734;50.904;6.922;2022-07-06T04:20:01;11.90;99.90
28524;DHT22;15734;50.904;6.922;2022-07-06T04:22:27;12.10;99.90
28524;DHT22;15734;50.904;6.922;2022-07-06T04:24:53;12.20;99.90
28524;DHT22;15734;50.904;6.922;2022-07-06T04:27:18;12.20;99.90
28524;DHT22;15734;50.904;6.922;2022-07-06T04:29:44;12.30;99.90
28524;DHT22;15734;50.904;6.922;2022-07-06T04:32:09;12.30;99.90
28524;DHT22;15734;50.904;6.922;2022-07-06T04:34:35;12.20;99.90
28524;DHT22;15734;50.904;6.922;2022-07-06T04:37:00;12.30;99.90
28524;DHT22;15734;50.904;6.922;2022-07-06T04:39:26;12.30;99.90
28524;DHT22;15734;50.904;6.922;2022-07-06T04:41:52;12.30;99.90
28524;DHT22;15734;50.904;6.922;2022-07-06T04:44:17;12.30;99.90
28524;DHT22;15734;50.904;6.922;2022-07-06T04:46:43;12.30;99.90
28524;DHT22;15734;50.904;6.922;2022-07-06T04:49:08;12.40;99.90
28524;DHT22;15734;50.904;6.922;2022-07-06T04:51:34;12.40;99.90
28524;DHT22;15734;50.904;6.922;2022-07-06T04:53:59;12.50;99.90
28524;DHT22;15734;50.904;6.922;2022-07-06T04:56:25;12.50;99.90
28524;DHT22;15734;50.904;6.922;2022-07-06T04:58:50;12.50;99.90
28524;DHT22;15734;50.904;6.922;2022-07-06T05:01:16;12.50;99.90
28524;DHT22;15734;50.904;6.922;2022-07-06T05:03:41;12.60;99.90
28524;DHT22;15734;50.904;6.922;2022-07-06T05:06:07;12.60;99.90
28524;DHT22;15734;50.904;6.922;2022-07-06T05:08:33;12.60;99.90
28524;DHT22;15734;50.904;6.922;2022-07-06T05:10:59;12.60;99.90
28524;DHT22;15734;50.904;6.922;2022-07-06T05:13:25;12.70;99.90
28524;DHT22;15734;50.904;6.922;2022-07-06T05:15:50;12.70;99.90
28524;DHT22;15734;50.904;6.922;2022-07-06T05:18:16;12.80;99.90
28524;DHT22;15734;50.904;6.922;2022-07-06T05:20:41;12.90;99.90
28524;DHT22;15734;50.904;6.922;2022-07-06T05:23:08;12.90;99.90
28524;DHT22;15734;50.904;6.922;2022-07-06T05:25:33;13.00;99.90
28524;DHT22;15734;50.904;6.922;2022-07-06T05:27:59;13.10;99.90
28524;DHT22;15734;50.904;6.922;2022-07-06T05:30:26;13.10;99.90
28524;DHT22;15734;50.904;6.922;2022-07-06T05:32:51;13.20;99.90
28524;DHT22;15734;50.904;6.922;2022-07-06T05:35:17;13.20;99.90
28524;DHT22;15734;50.904;6.922;2022-07-06T05:37:43;13.30;99.90
28524;DHT22;15734;50.904;6.922;2022-07-06T05:40:09;13.40;99.90
28524;DHT22;15734;50.904;6.922;2022-07-06T05:42:35;13.50;99.90
28524;DHT22;15734;50.904;6.922;2022-07-06T05:45:00;13.50;99.90
28524;DHT22;15734;50.904;6.922;2022-07-06T05:47:26;13.50;99.90
28524;DHT22;15734;50.904;6.922;2022-07-06T05:50:10;13.60;99.90
28524;DHT22;15734;50.904;6.922;2022-07-06T05:52:44;13.60;99.90
28524;DHT22;15734;50.904;6.922;2022-07-06T05:55:11;13.70;99.90
28524;DHT22;15734;50.904;6.922;2022-07-06T05:57:37;13.70;99.90
28524;DHT22;15734;50.904;6.922;2022-07-06T06:00:07;13.70;99.90
28524;DHT22;15734;50.904;6.922;2022-07-06T06:02:40;13.80;99.90
28524;DHT22;15734;50.904;6.922;2022-07-06T06:05:07;13.90;99.90
28524;DHT22;15734;50.904;6.922;2022-07-06T06:07:34;14.00;99.90
28524;DHT22;15734;50.904;6.922;2022-07-06T06:10:01;14.10;99.90
28524;DHT22;15734;50.904;6.922;2022-07-06T06:12:26;14.10;99.90
28524;DHT22;15734;50.904;6.922;2022-07-06T06:14:52;14.20;99.90
28524;DHT22;15734;50.904;6.922;2022-07-06T06:17:17;14.30;99.90
28524;DHT22;15734;50.904;6.922;2022-07-06T06:19:43;14.30;99.90
28524;DHT22;15734;50.904;6.922;2022-07-06T06:22:08;14.40;99.90
28524;DHT22;15734;50.904;6.922;2022-07-06T06:24:34;14.50;99.90
28524;DHT22;15734;50.904;6.922;2022-07-06T06:26:59;14.60;99.90
28524;DHT22;15734;50.904;6.922;2022-07-06T06:29:25;14.70;99.90
28524;DHT22;15734;50.904;6.922;2022-07-06T06:31:51;14.80;99.90
28524;DHT22;15734;50.904;6.922;2022-07-06T06:34:16;14.90;99.90
28524;DHT22;15734;50.904;6.922;2022-07-06T06:36:42;14.90;99.90
28524;DHT22;15734;50.904;6.922;2022-07-06T06:39:07;15.00;99.90
28524;DHT22;15734;50.904;6.922;2022-07-06T06:41:33;15.00;99.90
28524;DHT22;15734;50.904;6.922;2022-07-06T06:43:58;15.10;99.90
28524;DHT22;15734;50.904;6.922;2022-07-06T06:46:24;15.10;99.90
28524;DHT22;15734;50.904;6.922;2022-07-06T06:48:49;15.20;99.90
28524;DHT22;15734;50.904;6.922;2022-07-06T06:51:15;15.40;99.90
28524;DHT22;15734;50.904;6.922;2022-07-06T06:53:40;15.40;99.90
28524;DHT22;15734;50.904;6.922;2022-07-06T06:56:07;15.40;99.90
28524;DHT22;15734;50.904;6.922;2022-07-06T06:58:32;15.50;99.90
28524;DHT22;15734;50.904;6.922;2022-07-06T07:00:58;15.60;99.90
28524;DHT22;15734;50.904;6.922;2022-07-06T07:03:24;15.70;99.90
28524;DHT22;15734;50.904;6.922;2022-07-06T07:05:50;15.90;99.90
28524;DHT22;15734;50.904;6.922;2022-07-06T07:08:15;16.00;99.90
28524;DHT22;15734;50.904;6.922;2022-07-06T07:10:41;16.10;99.90
28524;DHT22;15734;50.904;6.922;2022-07-06T07:13:07;16.30;99.90
28524;DHT22;15734;50.904;6.922;2022-07-06T07:15:32;16.30;99.90
28524;DHT22;15734;50.904;6.922;2022-07-06T07:17:58;16.20;99.90
28524;DHT22;15734;50.904;6.922;2022-07-06T07:20:23;16.20;99.90
28524;DHT22;15734;50.904;6.922;2022-07-06T07:22:49;16.20;99.90
28524;DHT22;15734;50.904;6.922;2022-07-06T07:25:14;16.30;99.90
28524;DHT22;15734;50.904;6.922;2022-07-06T07:27:40;16.30;99.90
28524;DHT22;15734;50.904;6.922;2022-07-06T07:30:06;16.30;99.90
28524;DHT22;15734;50.904;6.922;2022-07-06T07:32:32;16.30;99.90
28524;DHT22;15734;50.904;6.922;2022-07-06T07:34:58;16.30;99.90
28524;DHT22;15734;50.904;6.922;2022-07-06T07:37:23;16.20;99.90
28524;DHT22;15734;50.904;6.922;2022-07-06T07:39:49;16.20;99.90
28524;DHT22;15734;50.904;6.922;2022-07-06T07:42:14;16.30;99.90
28524;DHT22;15734;50.904;6.922;2022-07-06T07:44:40;16.50;99.90
28524;DHT22;15734;50.904;6.922;2022-07-06T07:47:06;16.60;99.90
28524;DHT22;15734;50.904;6.922;2022-07-06T07:49:31;16.70;99.90
28524;DHT22;15734;50.904;6.922;2022-07-06T07:51:57;16.70;99.90
28524;DHT22;15734;50.904;6.922;2022-07-06T07:54:23;16.70;99.90
28524;DHT22;15734;50.904;6.922;2022-07-06T07:56:49;16.60;99.90
28524;DHT22;15734;50.904;6.922;2022-07-06T07:59:14;16.60;99.90
28524;DHT22;15734;50.904;6.922;2022-07-06T08:01:40;16.60;99.90
28524;DHT22;15734;50.904;6.922;2022-07-06T08:04:05;16.60;99.90
28524;DHT22;15734;50.904;6.922;2022-07-06T08:06:31;16.50;99.90
28524;DHT22;15734;50.904;6.922;2022-07-06T08:08:57;16.40;99.90
28524;DHT22;15734;50.904;6.922;2022-07-06T08:11:22;16.40;99.90
28524;DHT22;15734;50.904;6.922;2022-07-06T08:13:48;16.50;99.90
28524;DHT22;15734;50.904;6.922;2022-07-06T08:16:14;16.50;99.90
28524;DHT22;15734;50.904;6.922;2022-07-06T08:18:39;16.50;99.90
28524;DHT22;15734;50.904;6.922;2022-07-06T08:21:05;16.50;99.90
28524;DHT22;15734;50.904;6.922;2022-07-06T08:23:31;16.50;99.90
28524;DHT22;15734;50.904;6.922;2022-07-06T08:25:56;16.40;99.90
28524;DHT22;15734;50.904;6.922;2022-07-06T08:28:22;16.30;99.90
28524;DHT22;15734;50.904;6.922;2022-07-06T08:30:47;16.30;99.90
28524;DHT22;15734;50.904;6.922;2022-07-06T08:33:14;16.40;99.90
28524;DHT22;15734;50.904;6.922;2022-07-06T08:35:39;16.50;99.90
28524;DHT22;15734;50.904;6.922;2022-07-06T08:38:05;16.60;99.90
28524;DHT22;15734;50.904;6.922;2022-07-06T08:40:33;16.60;99.90
28524;DHT22;15734;50.904;6.922;2022-07-06T08:43:00;16.60;99.90
28524;DHT22;15734;50.904;6.922;2022-07-06T08:45:26;16.50;99.90
28524;DHT22;15734;50.904;6.922;2022-07-06T08:47:54;16.60;99.90
28524;DHT22;15734;50.904;6.922;2022-07-06T08:50:20;16.60;99.90
28524;DHT22;15734;50.904;6.922;2022-07-06T08:52:48;16.60;99.90
28524;DHT22;15734;50.904;6.922;2022-07-06T08:55:15;16.70;99.90
28524;DHT22;15734;50.904;6.922;2022-07-06T08:57:42;16.80;99.90
28524;DHT22;15734;50.904;6.922;2022-07-06T09:00:10;16.80;99.90
28524;DHT22;15734;50.904;6.922;2022-07-06T09:02:37;16.80;99.90
28524;DHT22;15734;50.904;6.922;2022-07-06T09:05:03;16.90;99.90
28524;DHT22;15734;50.904;6.922;2022-07-06T09:07:29;16.90;99.90
28524;DHT22;15734;50.904;6.922;2022-07-06T09:09:56;17.00;99.90
28524;DHT22;15734;50.904;6.922;2022-07-06T09:12:26;17.10;99.90
28524;DHT22;15734;50.904;6.922;2022-07-06T09:14:57;17.20;99.90
28524;DHT22;15734;50.904;6.922;2022-07-06T09:17:29;17.20;99.90
28524;DHT22;15734;50.904;6.922;2022-07-06T09:19:56;17.20;99.90
28524;DHT22;15734;50.904;6.922;2022-07-06T09:22:30;17.30;99.90
28524;DHT22;15734;50.904;6.922;2022-07-06T09:25:06;17.30;99.90
28524;DHT22;15734;50.904;6.922;2022-07-06T09:27:40;17.10;99.90
28524;DHT22;15734;50.904;6.922;2022-07-06T09:30:07;17.20;99.90
28524;DHT22;15734;50.904;6.922;2022-07-06T09:32:45;17.20;99.90
28524;DHT22;15734;50.904;6.922;2022-07-06T09:38:04;17.20;99.90
28524;DHT22;15734;50.904;6.922;2022-07-06T09:40:34;17.20;99.90
28524;DHT22;15734;50.904;6.922;2022-07-06T09:43:14;17.10;99.90
28524;DHT22;15734;50.904;6.922;2022-07-06T09:45:42;17.20;99.90
28524;DHT22;15734;50.904;6.922;2022-07-06T09:48:10;17.30;99.90
28524;DHT22;15734;50.904;6.922;2022-07-06T09:50:44;17.40;99.90
28524;DHT22;15734;50.904;6.922;2022-07-06T09:53:11;17.60;99.90
28524;DHT22;15734;50.904;6.922;2022-07-06T09:55:37;17.60;99.90
28524;DHT22;15734;50.904;6.922;2022-07-06T09:58:03;17.50;99.90
28524;DHT22;15734;50.904;6.922;2022-07-06T10:00:29;17.40;99.90
28524;DHT22;15734;50.904;6.922;2022-07-06T10:02:55;17.50;99.90
28524;DHT22;15734;50.904;6.922;2022-07-06T10:05:22;17.60;99.90
28524;DHT22;15734;50.904;6.922;2022-07-06T10:07:56;17.60;99.90
28524;DHT22;15734;50.904;6.922;2022-07-06T10:10:25;17.70;99.90
28524;DHT22;15734;50.904;6.922;2022-07-06T10:12:52;17.70;99.90
28524;DHT22;15734;50.904;6.922;2022-07-06T10:15:21;18.10;99.90
28524;DHT22;15734;50.904;6.922;2022-07-06T10:17:47;18.20;99.90
28524;DHT22;15734;50.904;6.922;2022-07-06T10:20:15;18.10;99.90
28524;DHT22;15734;50.904;6.922;2022-07-06T10:22:41;18.60;99.90
28524;DHT22;15734;50.904;6.922;2022-07-06T10:25:07;18.90;99.90
28524;DHT22;15734;50.904;6.922;2022-07-06T10:27:34;19.20;99.90
28524;DHT22;15734;50.904;6.922;2022-07-06T10:30:01;19.20;99.90
28524;DHT22;15734;50.904;6.922;2022-07-06T10:32:27;19.00;99.90
28524;DHT22;15734;50.904;6.922;2022-07-06T10:34:53;19.40;99.90
28524;DHT22;15734;50.904;6.922;2022-07-06T10:37:26;19.60;99.90
28524;DHT22;15734;50.904;6.922;2022-07-06T10:39:52;19.70;99.90
28524;DHT22;15734;50.904;6.922;2022-07-06T10:42:45;19.60;99.90
28524;DHT22;15734;50.904;6.922;2022-07-06T10:45:12;19.70;99.90
28524;DHT22;15734;50.904;6.922;2022-07-06T10:47:38;19.90;99.90
28524;DHT22;15734;50.904;6.922;2022-07-06T10:50:05;20.00;99.90
28524;DHT22;15734;50.904;6.922;2022-07-06T10:52:48;20.20;99.90
28524;DHT22;15734;50.904;6.922;2022-07-06T10:55:30;19.80;99.90
28524;DHT22;15734;50.904;6.922;2022-07-06T10:57:56;19.50;99.90
28524;DHT22;15734;50.904;6.922;2022-07-06T11:00:22;19.70;99.90
28524;DHT22;15734;50.904;6.922;2022-07-06T11:02:47;19.70;99.90
28524;DHT22;15734;50.904;6.922;2022-07-06T11:05:39;19.90;99.90
28524;DHT22;15734;50.904;6.922;2022-07-06T11:08:04;20.00;99.90
28524;DHT22;15734;50.904;6.922;2022-07-06T11:10:46;20.20;99.90
28524;DHT22;15734;50.904;6.922;2022-07-06T11:13:28;20.50;99.90
28524;DHT22;15734;50.904;6.922;2022-07-06T11:16:01;20.80;99.90
28524;DHT22;15734;50.904;6.922;2022-07-06T11:18:28;20.70;99.90
28524;DHT22;15734;50.904;6.922;2022-07-06T11:21:17;20.80;99.90
28524;DHT22;15734;50.904;6.922;2022-07-06T11:23:44;20.40;99.90
28524;DHT22;15734;50.904;6.922;2022-07-06T11:26:11;20.10;99.90
28524;DHT22;15734;50.904;6.922;2022-07-06T11:28:37;20.00;99.90
28524;DHT22;15734;50.904;6.922;2022-07-06T11:31:03;20.20;99.90
28524;DHT22;15734;50.904;6.922;2022-07-06T11:33:30;20.30;99.90
28524;DHT22;15734;50.904;6.922;2022-07-06T11:36:14;20.30;99.90
28524;DHT22;15734;50.904;6.922;2022-07-06T11:38:41;20.60;99.90
28524;DHT22;15734;50.904;6.922;2022-07-06T11:41:07;20.60;99.90
28524;DHT22;15734;50.904;6.922;2022-07-06T11:43:32;20.70;99.90
28524;DHT22;15734;50.904;6.922;2022-07-06T11:45:58;20.80;99.90
28524;DHT22;15734;50.904;6.922;2022-07-06T11:48:23;20.80;99.90
28524;DHT22;15734;50.904;6.922;2022-07-06T11:51:03;20.40;99.90
28524;DHT22;15734;50.904;6.922;2022-07-06T11:53:29;20.50;99.90
28524;DHT22;15734;50.904;6.922;2022-07-06T11:55:55;20.30;99.90
28524;DHT22;15734;50.904;6.922;2022-07-06T11:58:22;20.30;99.90
28524;DHT22;15734;50.904;6.922;2022-07-06T12:01:07;20.30;99.90
28524;DHT22;15734;50.904;6.922;2022-07-06T12:03:33;20.20;99.90
28524;DHT22;15734;50.904;6.922;2022-07-06T12:06:01;20.20;99.90
28524;DHT22;15734;50.904;6.922;2022-07-06T12:08:26;20.00;99.90
28524;DHT22;15734;50.904;6.922;2022-07-06T12:10:52;20.00;99.90
28524;DHT22;15734;50.904;6.922;2022-07-06T12:13:18;20.00;99.90
28524;DHT22;15734;50.904;6.922;2022-07-06T12:15:44;20.20;99.90
28524;DHT22;15734;50.904;6.922;2022-07-06T12:18:09;20.30;99.90
28524;DHT22;15734;50.904;6.922;2022-07-06T12:20:35;20.50;99.90
28524;DHT22;15734;50.904;6.922;2022-07-06T12:23:05;20.70;99.90
28524;DHT22;15734;50.904;6.922;2022-07-06T12:25:36;20.90;99.90
28524;DHT22;15734;50.904;6.922;2022-07-06T12:28:02;21.10;99.90
28524;DHT22;15734;50.904;6.922;2022-07-06T12:30:28;21.20;99.90
28524;DHT22;15734;50.904;6.922;2022-07-06T12:33:12;20.90;99.90
28524;DHT22;15734;50.904;6.922;2022-07-06T12:35:38;20.80;99.90
28524;DHT22;15734;50.904;6.922;2022-07-06T12:38:04;20.80;99.90
28524;DHT22;15734;50.904;6.922;2022-07-06T12:40:29;20.80;99.90
28524;DHT22;15734;50.904;6.922;2022-07-06T12:42:55;20.60;99.90
28524;DHT22;15734;50.904;6.922;2022-07-06T12:45:29;20.70;99.90
28524;DHT22;15734;50.904;6.922;2022-07-06T12:48:02;20.70;99.90
28524;DHT22;15734;50.904;6.922;2022-07-06T12:50:36;20.90;99.90
28524;DHT22;15734;50.904;6.922;2022-07-06T12:53:03;21.20;99.90
28524;DHT22;15734;50.904;6.922;2022-07-06T12:55:30;21.20;99.90
28524;DHT22;15734;50.904;6.922;2022-07-06T12:57:56;20.90;99.90
28524;DHT22;15734;50.904;6.922;2022-07-06T13:00:22;20.90;99.90
28524;DHT22;15734;50.904;6.922;2022-07-06T13:02:51;20.90;99.90
28524;DHT22;15734;50.904;6.922;2022-07-06T13:05:23;21.10;99.90
28524;DHT22;15734;50.904;6.922;2022-07-06T13:07:57;21.00;99.90
28524;DHT22;15734;50.904;6.922;2022-07-06T13:10:23;21.00;99.90
28524;DHT22;15734;50.904;6.922;2022-07-06T13:12:50;21.00;99.90
28524;DHT22;15734;50.904;6.922;2022-07-06T13:15:16;20.80;99.90
28524;DHT22;15734;50.904;6.922;2022-07-06T13:17:42;21.10;99.90
28524;DHT22;15734;50.904;6.922;2022-07-06T13:20:10;21.40;99.90
28524;DHT22;15734;50.904;6.922;2022-07-06T13:22:36;21.60;99.90
28524;DHT22;15734;50.904;6.922;2022-07-06T13:25:01;21.60;99.90
28524;DHT22;15734;50.904;6.922;2022-07-06T13:27:27;21.70;99.90
28524;DHT22;15734;50.904;6.922;2022-07-06T13:29:54;21.70;99.90
28524;DHT22;15734;50.904;6.922;2022-07-06T13:32:19;21.60;99.90
28524;DHT22;15734;50.904;6.922;2022-07-06T13:34:45;21.40;99.90
28524;DHT22;15734;50.904;6.922;2022-07-06T13:37:10;21.70;99.90
28524;DHT22;15734;50.904;6.922;2022-07-06T13:39:36;22.00;99.90
28524;DHT22;15734;50.904;6.922;2022-07-06T13:42:02;22.10;99.90
28524;DHT22;15734;50.904;6.922;2022-07-06T13:44:28;21.90;99.90
28524;DHT22;15734;50.904;6.922;2022-07-06T13:46:54;22.00;99.90
28524;DHT22;15734;50.904;6.922;2022-07-06T13:49:19;22.20;99.90
28524;DHT22;15734;50.904;6.922;2022-07-06T13:51:46;22.00;99.90
28524;DHT22;15734;50.904;6.922;2022-07-06T13:54:12;22.00;99.90
28524;DHT22;15734;50.904;6.922;2022-07-06T13:56:38;22.00;99.90
28524;DHT22;15734;50.904;6.922;2022-07-06T13:59:05;22.40;99.90
28524;DHT22;15734;50.904;6.922;2022-07-06T14:01:31;22.50;99.90
28524;DHT22;15734;50.904;6.922;2022-07-06T14:03:56;22.60;99.90
28524;DHT22;15734;50.904;6.922;2022-07-06T14:06:22;22.80;99.90
28524;DHT22;15734;50.904;6.922;2022-07-06T14:08:48;22.60;99.90
28524;DHT22;15734;50.904;6.922;2022-07-06T14:11:13;22.20;99.90
28524;DHT22;15734;50.904;6.922;2022-07-06T14:13:39;22.10;99.90
28524;DHT22;15734;50.904;6.922;2022-07-06T14:16:05;22.10;99.90
28524;DHT22;15734;50.904;6.922;2022-07-06T14:18:32;22.30;99.90
28524;DHT22;15734;50.904;6.922;2022-07-06T14:20:57;22.40;99.90
28524;DHT22;15734;50.904;6.922;2022-07-06T14:23:23;22.20;99.90
28524;DHT22;15734;50.904;6.922;2022-07-06T14:25:50;22.60;99.90
28524;DHT22;15734;50.904;6.922;2022-07-06T14:28:16;22.90;99.90
28524;DHT22;15734;50.904;6.922;2022-07-06T14:30:42;23.30;99.90
28524;DHT22;15734;50.904;6.922;2022-07-06T14:33:10;23.50;99.90
28524;DHT22;15734;50.904;6.922;2022-07-06T14:35:44;23.70;99.90
28524;DHT22;15734;50.904;6.922;2022-07-06T14:38:12;23.80;99.90
28524;DHT22;15734;50.904;6.922;2022-07-06T14:40:37;23.50;99.90
28524;DHT22;15734;50.904;6.922;2022-07-06T14:43:03;23.40;99.90
28524;DHT22;15734;50.904;6.922;2022-07-06T14:45:30;23.20;99.90
28524;DHT22;15734;50.904;6.922;2022-07-06T14:47:56;23.10;99.90
28524;DHT22;15734;50.904;6.922;2022-07-06T14:50:22;22.60;99.90
28524;DHT22;15734;50.904;6.922;2022-07-06T14:52:51;22.80;99.90
28524;DHT22;15734;50.904;6.922;2022-07-06T14:55:17;22.80;99.90
28524;DHT22;15734;50.904;6.922;2022-07-06T14:57:42;22.80;99.90
28524;DHT22;15734;50.904;6.922;2022-07-06T15:00:09;22.50;99.90
28524;DHT22;15734;50.904;6.922;2022-07-06T15:02:35;22.60;99.90
28524;DHT22;15734;50.904;6.922;2022-07-06T15:05:00;22.80;99.90
28524;DHT22;15734;50.904;6.922;2022-07-06T15:07:26;23.10;99.90
28524;DHT22;15734;50.904;6.922;2022-07-06T15:09:51;23.30;99.90
28524;DHT22;15734;50.904;6.922;2022-07-06T15:12:17;23.60;99.90
28524;DHT22;15734;50.904;6.922;2022-07-06T15:14:43;23.50;99.90
28524;DHT22;15734;50.904;6.922;2022-07-06T15:17:08;23.70;99.90
28524;DHT22;15734;50.904;6.922;2022-07-06T15:19:34;23.90;99.90
28524;DHT22;15734;50.904;6.922;2022-07-06T15:22:00;24.20;99.90
28524;DHT22;15734;50.904;6.922;2022-07-06T15:24:26;24.20;99.90
28524;DHT22;15734;50.904;6.922;2022-07-06T15:26:51;23.90;99.90
28524;DHT22;15734;50.904;6.922;2022-07-06T15:29:17;24.10;99.90
28524;DHT22;15734;50.904;6.922;2022-07-06T15:31:43;24.30;99.90